createdAt,value
2022-10-23T00:01:51.227Z,14.05
2022-10-23T00:04:23.217Z,14.04
2022-10-23T00:06:51.658Z,14.06
2022-10-23T00:09:24.078Z,14.13
2022-10-23T00:11:53.105Z,14.20
2022-10-23T00:14:25.229Z,14.26
2022-10-23T00:16:53.184Z,14.25
2022-10-23T00:19:21.074Z,14.22
2022-10-23T00:21:49.155Z,14.19
2022-10-23T00:24:17.160Z,14.17
2022-10-23T00:26:45.015Z,14.17
2022-10-23T00:29:12.925Z,14.26
2022-10-23T00:31:40.780Z,14.26
2022-10-23T00:34:09.308Z,14.28
2022-10-23T00:36:37.539Z,14.30
2022-10-23T00:39:06.009Z,14.27
2022-10-23T00:41:34.059Z,14.25
2022-10-23T00:44:30.628Z,14.25
2022-10-23T00:46:59.949Z,14.21
2022-10-23T00:49:28.438Z,14.24
2022-10-23T00:52:02.201Z,14.25
2022-10-23T00:54:37.325Z,14.33
2022-10-23T00:57:11.544Z,14.35
2022-10-23T00:59:40.867Z,14.39
2022-10-23T01:02:09.419Z,14.33
2022-10-23T01:04:38.395Z,14.34
2022-10-23T01:07:17.492Z,14.38
2022-10-23T01:09:48.696Z,14.40
2022-10-23T01:12:45.300Z,14.38
2022-10-23T01:15:31.026Z,14.38
2022-10-23T01:18:30.076Z,14.42
2022-10-23T01:21:08.627Z,14.49
2022-10-23T01:23:57.832Z,14.44
2022-10-23T01:27:01.090Z,14.45
2022-10-23T01:29:51.787Z,14.47
2022-10-23T01:32:35.159Z,14.56
2022-10-23T01:35:21.427Z,14.57
2022-10-23T01:38:12.827Z,14.51
2022-10-23T01:41:05.862Z,14.49
2022-10-23T01:44:07.270Z,14.53
2022-10-23T01:46:37.608Z,14.50
2022-10-23T01:49:12.904Z,14.46
2022-10-23T01:51:49.809Z,14.48
2022-10-23T01:54:23.674Z,14.46
2022-10-23T01:56:53.080Z,14.42
2022-10-23T01:59:35.265Z,14.43
2022-10-23T02:02:05.108Z,14.42
2022-10-23T02:04:55.632Z,14.37
2022-10-23T02:07:24.308Z,14.28
2022-10-23T02:09:52.713Z,14.29
2022-10-23T02:12:35.959Z,14.32
2022-10-23T02:15:19.408Z,14.41
2022-10-23T02:18:19.099Z,14.46
2022-10-23T02:20:59.049Z,14.53
2022-10-23T02:23:38.920Z,14.46
2022-10-23T02:26:41.061Z,14.36
2022-10-23T02:29:21.275Z,14.28
2022-10-23T02:31:49.605Z,14.26
2022-10-23T02:34:19.717Z,14.21
2022-10-23T02:36:47.987Z,14.19
2022-10-23T02:39:15.887Z,14.23
2022-10-23T02:41:57.795Z,14.27
2022-10-23T02:45:07.099Z,14.26
2022-10-23T02:47:46.060Z,14.25
2022-10-23T02:50:38.907Z,14.30
2022-10-23T02:53:12.289Z,14.35
2022-10-23T02:56:04.448Z,14.35
2022-10-23T02:58:56.728Z,14.36
2022-10-23T03:01:58.218Z,14.38
2022-10-23T03:04:29.574Z,14.36
2022-10-23T03:06:57.979Z,14.35
2022-10-23T03:09:27.317Z,14.41
2022-10-23T03:11:55.197Z,14.42
2022-10-23T03:14:23.151Z,14.42
2022-10-23T03:16:51.241Z,14.47
2022-10-23T03:19:19.077Z,14.51
2022-10-23T03:21:46.972Z,14.47
2022-10-23T03:24:15.042Z,14.52
2022-10-23T03:26:44.255Z,14.56
2022-10-23T03:29:12.256Z,14.61
2022-10-23T03:31:45.531Z,14.71
2022-10-23T03:34:15.094Z,14.70
2022-10-23T03:36:43.383Z,14.66
2022-10-23T03:39:11.465Z,14.69
2022-10-23T03:41:39.341Z,14.78
2022-10-23T03:44:07.216Z,14.82
2022-10-23T03:46:35.051Z,14.77
2022-10-23T03:49:03.064Z,14.80
2022-10-23T03:51:30.984Z,14.77
2022-10-23T03:53:58.807Z,14.76
2022-10-23T03:56:26.892Z,14.76
2022-10-23T03:58:54.901Z,14.75
2022-10-23T04:01:25.630Z,14.79
2022-10-23T04:03:53.803Z,14.80
2022-10-23T04:06:21.747Z,14.72
2022-10-23T04:08:50.315Z,14.72
2022-10-23T04:11:18.704Z,14.78
2022-10-23T04:13:47.542Z,14.76
2022-10-23T04:16:16.060Z,14.74
2022-10-23T04:18:45.547Z,14.70
2022-10-23T04:21:13.614Z,14.72
2022-10-23T04:23:42.758Z,14.79
2022-10-23T04:26:19.174Z,14.79
2022-10-23T04:28:47.149Z,14.77
2022-10-23T04:31:15.020Z,14.69
2022-10-23T04:33:43.972Z,14.66
2022-10-23T04:36:22.510Z,14.75
2022-10-23T04:38:50.327Z,14.83
2022-10-23T04:41:18.162Z,14.88
2022-10-23T04:43:47.051Z,14.85
2022-10-23T04:46:15.939Z,14.81
2022-10-23T04:48:47.517Z,14.89
2022-10-23T04:51:50.729Z,14.90
2022-10-23T04:54:44.511Z,14.86
2022-10-23T04:57:32.645Z,14.87
2022-10-23T05:00:10.289Z,14.90
2022-10-23T05:02:46.035Z,14.89
2022-10-23T05:05:15.945Z,14.87
2022-10-23T05:08:23.688Z,14.81
2022-10-23T05:11:10.327Z,14.73
2022-10-23T05:13:43.533Z,14.71
2022-10-23T05:16:30.458Z,14.69
2022-10-23T05:19:00.011Z,14.65
2022-10-23T05:21:34.705Z,14.60
2022-10-23T05:24:05.556Z,14.62
2022-10-23T05:26:33.689Z,14.63
2022-10-23T05:29:06.963Z,14.61
2022-10-23T05:31:35.996Z,14.60
2022-10-23T05:34:14.883Z,14.52
2022-10-23T05:36:45.917Z,14.53
2022-10-23T05:39:15.686Z,14.51
2022-10-23T05:41:43.645Z,14.49
2022-10-23T05:44:12.187Z,14.54
2022-10-23T05:46:58.701Z,14.59
2022-10-23T05:49:56.394Z,14.49
2022-10-23T05:52:49.344Z,14.44
2022-10-23T05:55:30.579Z,14.50
2022-10-23T05:58:16.987Z,14.50
2022-10-23T06:01:11.618Z,14.50
2022-10-23T06:03:53.623Z,14.52
2022-10-23T06:06:23.723Z,14.52
2022-10-23T06:08:51.788Z,14.51
2022-10-23T06:11:21.128Z,14.57
2022-10-23T06:16:30.320Z,14.58
2022-10-23T06:18:58.949Z,14.64
2022-10-23T06:21:26.925Z,14.74
2022-10-23T06:23:55.629Z,14.66
2022-10-23T06:26:26.657Z,14.54
2022-10-23T06:29:20.924Z,14.54
2022-10-23T06:31:49.123Z,14.57
2022-10-23T06:34:17.037Z,14.53
2022-10-23T06:36:46.408Z,14.55
2022-10-23T06:39:33.044Z,14.63
2022-10-23T06:42:21.271Z,14.57
2022-10-23T06:44:54.940Z,14.62
2022-10-23T06:47:43.204Z,14.67
2022-10-23T06:50:33.132Z,14.61
2022-10-23T06:53:06.295Z,14.57
2022-10-23T06:55:35.549Z,14.50
2022-10-23T06:58:04.621Z,14.52
2022-10-23T07:00:32.589Z,14.55
2022-10-23T07:03:00.943Z,14.56
2022-10-23T07:05:28.751Z,14.59
2022-10-23T07:07:56.698Z,14.61
2022-10-23T07:10:26.806Z,14.63
2022-10-23T07:13:01.078Z,14.66
2022-10-23T07:15:49.434Z,14.68
2022-10-23T07:18:20.565Z,14.68
2022-10-23T07:21:20.655Z,14.66
2022-10-23T07:23:49.099Z,14.62
2022-10-23T07:26:17.450Z,14.63
2022-10-23T07:28:48.136Z,14.63
2022-10-23T07:31:18.928Z,14.68
2022-10-23T07:34:10.856Z,14.66
2022-10-23T07:36:38.792Z,14.62
2022-10-23T07:39:07.072Z,14.59
2022-10-23T07:41:37.380Z,14.61
2022-10-23T07:44:05.369Z,14.65
2022-10-23T07:46:33.367Z,14.69
2022-10-23T07:49:01.517Z,14.69
2022-10-23T07:51:29.495Z,14.74
2022-10-23T07:54:00.218Z,14.67
2022-10-23T07:56:46.993Z,14.65
2022-10-23T07:59:21.204Z,14.68
2022-10-23T08:01:56.740Z,14.70
2022-10-23T08:04:35.960Z,14.81
2022-10-23T08:07:11.258Z,14.80
2022-10-23T08:09:42.398Z,14.82
2022-10-23T08:12:10.496Z,14.93
2022-10-23T08:14:38.841Z,14.94
2022-10-23T08:17:09.823Z,14.90
2022-10-23T08:20:04.868Z,14.85
2022-10-23T08:22:39.023Z,14.86
2022-10-23T08:25:07.184Z,14.88
2022-10-23T08:27:35.282Z,14.90
2022-10-23T08:30:03.973Z,15.02
2022-10-23T08:32:32.008Z,15.11
2022-10-23T08:35:01.171Z,15.15
2022-10-23T08:37:31.603Z,15.15
2022-10-23T08:39:59.497Z,15.14
2022-10-23T08:43:13.209Z,15.22
2022-10-23T08:45:56.438Z,15.30
2022-10-23T08:49:14.463Z,15.38
2022-10-23T08:51:55.693Z,15.40
2022-10-23T08:54:57.737Z,15.42
2022-10-23T08:57:37.769Z,15.44
2022-10-23T09:00:16.074Z,15.56
2022-10-23T09:02:49.651Z,15.49
2022-10-23T09:05:30.199Z,15.51
2022-10-23T09:08:21.681Z,15.48
2022-10-23T09:11:07.727Z,15.39
2022-10-23T09:13:58.607Z,15.29
2022-10-23T09:16:43.861Z,15.20
2022-10-23T09:19:27.310Z,15.15
2022-10-23T09:21:57.093Z,15.07
2022-10-23T09:24:26.981Z,15.07
2022-10-23T09:26:55.039Z,15.11
2022-10-23T09:29:28.820Z,15.14
2022-10-23T09:32:05.107Z,15.16
2022-10-23T09:34:35.126Z,15.19
2022-10-23T09:37:22.816Z,15.14
2022-10-23T09:40:12.248Z,15.13
2022-10-23T09:42:52.986Z,15.14
2022-10-23T09:45:28.846Z,15.15
2022-10-23T09:48:19.303Z,15.15
2022-10-23T09:50:57.788Z,15.14
2022-10-23T09:53:57.608Z,15.13
2022-10-23T09:56:41.741Z,15.23
2022-10-23T09:59:12.715Z,15.40
2022-10-23T10:01:50.938Z,15.60
2022-10-23T10:04:41.718Z,15.93
2022-10-23T10:07:22.797Z,16.19
2022-10-23T10:09:53.249Z,16.39
2022-10-23T10:12:43.980Z,16.46
2022-10-23T10:15:52.974Z,16.50
2022-10-23T10:18:56.358Z,16.57
2022-10-23T10:21:39.060Z,16.67
2022-10-23T10:24:22.917Z,16.80
2022-10-23T10:27:00.937Z,16.97
2022-10-23T10:30:13.526Z,16.98
2022-10-23T10:33:00.300Z,17.05
2022-10-23T10:35:42.725Z,17.01
2022-10-23T10:38:42.388Z,16.99
2022-10-23T10:41:49.612Z,17.02
2022-10-23T10:44:28.192Z,17.13
2022-10-23T10:47:14.930Z,17.25
2022-10-23T10:50:07.633Z,17.37
2022-10-23T10:53:41.585Z,17.45
2022-10-23T10:56:17.663Z,17.51
2022-10-23T10:58:56.656Z,17.59
2022-10-23T11:01:40.935Z,17.53
2022-10-23T11:04:29.042Z,17.55
2022-10-23T11:06:59.824Z,17.53
2022-10-23T11:09:30.507Z,17.56
2022-10-23T11:11:59.685Z,17.60
2022-10-23T11:14:35.836Z,17.60
2022-10-23T11:17:25.677Z,17.60
2022-10-23T11:20:45.419Z,17.65
2022-10-23T11:23:53.985Z,17.78
2022-10-23T11:27:09.710Z,17.94
2022-10-23T11:29:59.006Z,18.00
2022-10-23T11:32:39.016Z,18.00
2022-10-23T11:35:36.199Z,18.08
2022-10-23T11:38:31.234Z,18.11
2022-10-23T11:41:20.997Z,18.08
2022-10-23T11:44:01.726Z,18.16
2022-10-23T11:46:36.577Z,18.30
2022-10-23T11:49:21.298Z,18.39
2022-10-23T11:52:05.534Z,18.44
2022-10-23T11:54:33.426Z,18.48
2022-10-23T11:57:10.396Z,18.47
2022-10-23T11:59:47.895Z,18.43
2022-10-23T12:02:38.554Z,18.38
2022-10-23T12:05:22.825Z,18.41
2022-10-23T12:07:57.667Z,18.52
2022-10-23T12:10:46.111Z,18.54
2022-10-23T12:13:38.447Z,18.56
2022-10-23T12:16:07.808Z,18.55
2022-10-23T12:18:53.836Z,18.54
2022-10-23T12:21:28.321Z,18.53
2022-10-23T12:24:08.403Z,18.46
2022-10-23T12:27:12.676Z,18.41
2022-10-23T12:30:09.600Z,18.46
2022-10-23T12:32:54.240Z,18.50
2022-10-23T12:35:53.660Z,18.50
2022-10-23T12:38:32.457Z,18.62
2022-10-23T12:41:27.851Z,18.74
2022-10-23T12:44:03.580Z,18.67
2022-10-23T12:46:39.449Z,18.59
2022-10-23T12:49:25.070Z,18.40
2022-10-23T12:52:17.193Z,18.27
2022-10-23T12:54:45.959Z,18.13
2022-10-23T12:57:23.105Z,18.03
2022-10-23T12:59:58.764Z,17.92
2022-10-23T13:02:31.379Z,17.98
2022-10-23T13:05:05.261Z,18.03
2022-10-23T13:07:42.584Z,17.98
2022-10-23T13:10:16.525Z,17.98
2022-10-23T13:13:07.754Z,17.92
2022-10-23T13:15:45.012Z,17.87
2022-10-23T13:18:15.898Z,17.78
2022-10-23T13:20:56.695Z,17.75
2022-10-23T13:23:34.904Z,17.72
2022-10-23T13:26:24.745Z,17.69
2022-10-23T13:28:52.943Z,17.67
2022-10-23T13:31:20.718Z,17.68
2022-10-23T13:34:00.344Z,17.62
2022-10-23T13:36:36.752Z,17.62
2022-10-23T13:39:11.742Z,17.72
2022-10-23T13:41:44.199Z,17.83
2022-10-23T13:44:18.910Z,18.01
2022-10-23T13:46:48.496Z,18.20
2022-10-23T13:49:16.759Z,18.38
2022-10-23T13:51:49.984Z,18.62
2022-10-23T13:54:22.950Z,18.69
2022-10-23T13:56:52.713Z,18.71
2022-10-23T13:59:21.619Z,18.63
2022-10-23T14:01:51.341Z,18.49
2022-10-23T14:04:20.207Z,18.39
2022-10-23T14:06:48.355Z,18.33
2022-10-23T14:09:19.045Z,18.27
2022-10-23T14:11:47.839Z,18.28
2022-10-23T14:14:15.816Z,18.33
2022-10-23T14:16:43.867Z,18.36
2022-10-23T14:19:11.816Z,18.33
2022-10-23T14:21:39.689Z,18.32
2022-10-23T14:24:09.107Z,18.25
2022-10-23T14:26:37.874Z,18.12
2022-10-23T14:29:09.763Z,18.07
2022-10-23T14:31:38.480Z,18.07
2022-10-23T14:34:06.424Z,18.10
2022-10-23T14:36:43.608Z,18.08
2022-10-23T14:39:19.158Z,18.00
2022-10-23T14:41:47.085Z,17.92
2022-10-23T14:44:15.289Z,17.87
2022-10-23T14:46:43.190Z,17.82
2022-10-23T14:49:11.024Z,17.78
2022-10-23T14:51:38.941Z,17.78
2022-10-23T14:54:08.400Z,17.83
2022-10-23T14:56:40.620Z,17.89
2022-10-23T14:59:10.187Z,17.89
2022-10-23T15:01:45.100Z,17.87
2022-10-23T15:04:15.910Z,17.87
2022-10-23T15:06:45.141Z,17.86
2022-10-23T15:09:14.656Z,17.82
2022-10-23T15:11:42.839Z,17.78
2022-10-23T15:14:11.666Z,17.73
2022-10-23T15:16:42.795Z,17.65
2022-10-23T15:19:18.171Z,17.56
2022-10-23T15:21:48.319Z,17.55
2022-10-23T15:24:17.573Z,17.49
2022-10-23T15:26:45.702Z,17.44
2022-10-23T15:29:15.273Z,17.41
2022-10-23T15:31:55.785Z,17.38
2022-10-23T15:34:28.697Z,17.42
2022-10-23T15:36:57.746Z,17.43
2022-10-23T15:39:33.717Z,17.40
2022-10-23T15:42:05.684Z,17.33
2022-10-23T15:44:34.376Z,17.31
2022-10-23T15:47:02.463Z,17.30
2022-10-23T15:49:30.508Z,17.31
2022-10-23T15:51:58.879Z,17.28
2022-10-23T15:54:30.540Z,17.19
2022-10-23T15:57:02.596Z,17.10
2022-10-23T15:59:32.283Z,17.03
2022-10-23T16:02:00.951Z,16.99
2022-10-23T16:04:29.178Z,16.96
2022-10-23T16:06:57.090Z,16.92
2022-10-23T16:09:24.951Z,16.86
2022-10-23T16:11:52.804Z,16.80
2022-10-23T16:14:20.642Z,16.69
2022-10-23T16:16:48.847Z,16.54
2022-10-23T16:19:17.074Z,16.34
2022-10-23T16:21:45.322Z,15.33
2022-10-23T16:24:13.272Z,14.01
2022-10-23T16:26:41.192Z,13.32
2022-10-23T16:29:11.351Z,13.03
2022-10-23T16:31:39.302Z,12.89
2022-10-23T16:34:07.812Z,12.83
2022-10-23T16:36:39.152Z,12.82
2022-10-23T16:39:16.260Z,12.82
2022-10-23T16:42:05.647Z,12.85
2022-10-23T16:45:07.056Z,12.90
2022-10-23T16:47:35.326Z,12.94
2022-10-23T16:50:03.900Z,12.98
2022-10-23T16:52:31.911Z,12.95
2022-10-23T16:55:00.383Z,12.95
2022-10-23T16:57:28.346Z,12.96
2022-10-23T16:59:56.229Z,13.02
2022-10-23T17:02:24.250Z,13.08
2022-10-23T17:04:52.359Z,13.08
2022-10-23T17:09:53.136Z,13.25
2022-10-23T17:12:21.039Z,13.26
2022-10-23T17:14:49.010Z,13.29
2022-10-23T17:17:16.978Z,13.42
2022-10-23T17:19:46.245Z,13.47
2022-10-23T17:22:15.614Z,13.39
2022-10-23T17:24:46.432Z,13.42
2022-10-23T17:27:17.312Z,13.41
2022-10-23T17:29:45.491Z,13.42
2022-10-23T17:32:13.516Z,13.43
2022-10-23T17:34:41.486Z,13.40
2022-10-23T17:37:10.305Z,13.36
2022-10-23T17:39:38.091Z,13.34
2022-10-23T17:42:06.222Z,13.30
2022-10-23T17:44:34.093Z,13.33
2022-10-23T17:47:02.060Z,13.32
2022-10-23T17:49:30.180Z,13.31
2022-10-23T17:51:58.391Z,13.37
2022-10-23T17:54:27.702Z,13.33
2022-10-23T17:56:56.587Z,13.30
2022-10-23T17:59:24.536Z,13.26
2022-10-23T18:01:52.600Z,13.24
2022-10-23T18:04:21.505Z,13.23
2022-10-23T18:06:53.296Z,13.27
2022-10-23T18:09:24.281Z,13.25
2022-10-23T18:11:52.849Z,13.21
2022-10-23T18:14:21.986Z,13.21
2022-10-23T18:16:51.245Z,13.17
2022-10-23T18:19:19.812Z,13.14
2022-10-23T18:21:48.592Z,13.14
2022-10-23T18:24:17.739Z,13.13
2022-10-23T18:26:48.151Z,13.10
2022-10-23T18:29:17.595Z,13.09
2022-10-23T18:31:48.381Z,13.04
2022-10-23T18:34:22.978Z,12.91
2022-10-23T18:36:53.961Z,12.83
2022-10-23T18:39:24.743Z,12.80
2022-10-23T18:41:57.026Z,12.78
2022-10-23T18:44:29.184Z,12.77
2022-10-23T18:46:59.528Z,12.74
2022-10-23T18:49:28.807Z,12.66
2022-10-23T18:51:58.330Z,12.60
2022-10-23T18:54:26.607Z,12.58
2022-10-23T18:56:54.690Z,12.58
2022-10-23T18:59:23.033Z,12.55
2022-10-23T19:01:51.237Z,12.55
2022-10-23T19:04:19.311Z,12.56
2022-10-23T19:06:49.436Z,12.57
2022-10-23T19:09:18.317Z,12.57
2022-10-23T19:11:46.425Z,12.57
2022-10-23T19:14:14.769Z,12.56
2022-10-23T19:17:12.472Z,12.56
2022-10-23T19:19:50.032Z,12.52
2022-10-23T19:22:18.802Z,12.47
2022-10-23T19:24:58.462Z,12.46
2022-10-23T19:27:28.013Z,12.43
2022-10-23T19:29:57.006Z,12.36
2022-10-23T19:32:24.933Z,12.35
2022-10-23T19:34:52.874Z,12.37
2022-10-23T19:37:20.727Z,12.38
2022-10-23T19:39:48.595Z,12.39
2022-10-23T19:42:16.407Z,12.37
2022-10-23T19:44:44.704Z,12.35
2022-10-23T19:47:12.603Z,12.41
2022-10-23T19:49:40.791Z,12.51
2022-10-23T19:52:08.646Z,12.51
2022-10-23T19:54:37.749Z,12.48
2022-10-23T19:57:05.638Z,12.50
2022-10-23T19:59:33.445Z,12.54
2022-10-23T20:02:01.991Z,12.60
2022-10-23T20:04:30.346Z,12.65
2022-10-23T20:06:58.489Z,12.71
2022-10-23T20:09:26.780Z,12.73
2022-10-23T20:11:55.700Z,12.81
2022-10-23T20:14:23.602Z,12.87
2022-10-23T20:16:55.750Z,12.92
2022-10-23T20:19:24.293Z,12.97
2022-10-23T20:21:52.345Z,12.93
2022-10-23T20:24:21.595Z,12.99
2022-10-23T20:26:53.894Z,13.10
2022-10-23T20:29:23.339Z,13.09
2022-10-23T20:31:51.955Z,13.06
2022-10-23T20:34:20.815Z,13.13
2022-10-23T20:36:50.124Z,13.09
2022-10-23T20:39:24.548Z,13.06
2022-10-23T20:41:55.353Z,13.06
2022-10-23T20:44:24.719Z,13.09
2022-10-23T20:46:53.118Z,13.08
2022-10-23T20:49:22.049Z,13.09
2022-10-23T20:51:55.050Z,13.13
2022-10-23T20:54:26.117Z,13.15
2022-10-23T20:56:56.942Z,13.17
2022-10-23T20:59:25.405Z,13.15
2022-10-23T21:01:55.438Z,13.14
2022-10-23T21:04:27.556Z,13.12
2022-10-23T21:07:09.301Z,13.13
2022-10-23T21:09:40.065Z,13.18
2022-10-23T21:12:09.132Z,13.19
2022-10-23T21:14:37.074Z,13.22
2022-10-23T21:17:05.683Z,13.22
2022-10-23T21:19:33.658Z,13.23
2022-10-23T21:22:01.902Z,13.24
2022-10-23T21:24:29.834Z,13.24
2022-10-23T21:26:57.889Z,13.24
2022-10-23T21:29:25.826Z,13.28
2022-10-23T21:31:57.354Z,13.31
2022-10-23T21:34:27.040Z,13.28
2022-10-23T21:39:45.842Z,13.31
2022-10-23T21:42:15.330Z,13.28
2022-10-23T21:44:43.582Z,13.26
2022-10-23T21:47:11.657Z,13.26
2022-10-23T21:49:39.576Z,13.26
2022-10-23T21:52:07.792Z,13.30
2022-10-23T21:54:35.746Z,13.28
2022-10-23T21:57:04.066Z,13.31
2022-10-23T21:59:34.809Z,13.32
2022-10-23T22:02:04.736Z,13.30
2022-10-23T22:04:33.704Z,13.23
2022-10-23T22:07:05.607Z,13.16
2022-10-23T22:09:34.651Z,13.13
2022-10-23T22:12:02.452Z,13.14
2022-10-23T22:14:30.803Z,13.12
2022-10-23T22:16:58.878Z,13.12
2022-10-23T22:19:27.075Z,13.14
2022-10-23T22:21:55.212Z,13.11
2022-10-23T22:24:23.891Z,13.11
2022-10-23T22:26:55.824Z,13.12
2022-10-23T22:29:27.609Z,13.10
2022-10-23T22:31:56.976Z,13.09
2022-10-23T22:37:17.138Z,13.06
2022-10-23T22:39:45.132Z,13.04
2022-10-23T22:42:13.101Z,13.06
2022-10-23T22:44:41.063Z,13.05
2022-10-23T22:47:09.046Z,13.06
2022-10-23T22:49:37.663Z,13.04
2022-10-23T22:52:05.549Z,13.04
2022-10-23T22:54:33.749Z,13.07
2022-10-23T22:57:01.767Z,13.09
2022-10-23T22:59:29.579Z,13.12
2022-10-23T23:01:57.396Z,13.11
2022-10-23T23:04:37.150Z,13.09
2022-10-23T23:07:09.636Z,13.06
2022-10-23T23:09:42.383Z,13.08
2022-10-23T23:12:13.825Z,13.06
2022-10-23T23:14:43.035Z,13.06
2022-10-23T23:17:11.843Z,13.06
2022-10-23T23:19:40.052Z,13.07
2022-10-23T23:22:08.093Z,13.07
2022-10-23T23:24:36.285Z,13.04
2022-10-23T23:27:04.329Z,13.09
2022-10-23T23:29:32.422Z,13.14
2022-10-23T23:32:00.579Z,13.16
2022-10-23T23:34:29.251Z,13.23
2022-10-23T23:36:57.306Z,13.26
2022-10-23T23:39:26.170Z,13.26
2022-10-23T23:41:54.168Z,13.29
2022-10-23T23:44:22.023Z,13.32
2022-10-23T23:46:49.900Z,13.34
2022-10-23T23:49:17.827Z,13.35
2022-10-23T23:51:45.727Z,13.37
2022-10-23T23:54:13.678Z,13.37
2022-10-23T23:56:41.675Z,13.36
2022-10-23T23:59:09.482Z,13.36
